createdAt,value
2018-04-25T00:00:47.695Z,12.90
2018-04-25T00:03:16.161Z,12.90
2018-04-25T00:05:44.179Z,12.60
2018-04-25T00:08:11.867Z,13.00
2018-04-25T00:10:40.740Z,12.90
2018-04-25T00:13:08.391Z,12.80
2018-04-25T00:15:36.533Z,13.00
2018-04-25T00:18:05.030Z,13.00
2018-04-25T00:20:33.090Z,13.00
2018-04-25T00:23:01.114Z,12.70
2018-04-25T00:25:29.605Z,13.00
2018-04-25T00:27:58.029Z,13.10
2018-04-25T00:30:25.832Z,13.60
2018-04-25T00:32:54.249Z,13.20
2018-04-25T00:35:22.710Z,13.10
2018-04-25T00:37:50.834Z,13.10
2018-04-25T00:40:18.520Z,13.50
2018-04-25T00:42:47.760Z,13.30
2018-04-25T00:45:15.471Z,13.20
2018-04-25T00:47:43.162Z,13.30
2018-04-25T00:50:11.782Z,13.50
2018-04-25T00:52:40.199Z,13.60
2018-04-25T00:55:09.464Z,13.60
2018-04-25T00:57:37.139Z,13.90
2018-04-25T01:00:05.258Z,13.20
2018-04-25T01:02:34.483Z,13.70
2018-04-25T01:05:02.923Z,13.70
2018-04-25T01:07:31.459Z,13.70
2018-04-25T01:09:59.131Z,13.80
2018-04-25T01:12:28.439Z,13.70
2018-04-25T01:14:56.114Z,13.60
2018-04-25T01:17:23.847Z,13.80
2018-04-25T01:19:51.594Z,14.10
2018-04-25T01:22:20.115Z,13.80
2018-04-25T01:24:57.784Z,13.80
2018-04-25T01:27:25.849Z,13.10
2018-04-25T01:29:55.405Z,14.10
2018-04-25T01:32:23.106Z,14.30
2018-04-25T01:34:52.658Z,14.10
2018-04-25T01:37:33.462Z,13.90
2018-04-25T01:40:01.180Z,13.90
2018-04-25T01:42:48.669Z,14.10
2018-04-25T01:45:24.014Z,14.00
2018-04-25T01:47:59.129Z,13.90
2018-04-25T01:50:31.854Z,14.50
2018-04-25T01:53:11.302Z,14.00
2018-04-25T01:55:51.817Z,14.00
2018-04-25T02:01:06.809Z,13.90
2018-04-25T02:06:37.760Z,13.80
2018-04-25T02:09:05.800Z,13.90
2018-04-25T02:11:33.984Z,13.90
2018-04-25T02:14:01.650Z,13.90
2018-04-25T02:16:42.217Z,13.50
2018-04-25T02:19:09.896Z,14.00
2018-04-25T02:21:37.980Z,14.00
2018-04-25T02:24:06.058Z,13.70
2018-04-25T02:26:37.339Z,14.10
2018-04-25T02:29:05.095Z,14.30
2018-04-25T02:31:33.556Z,14.30
2018-04-25T02:34:01.292Z,14.70
2018-04-25T02:36:33.836Z,14.70
2018-04-25T02:39:01.537Z,14.40
2018-04-25T02:41:30.539Z,14.10
2018-04-25T02:43:58.276Z,14.30
2018-04-25T02:46:26.001Z,14.50
2018-04-25T02:48:54.477Z,14.40
2018-04-25T02:51:23.931Z,14.40
2018-04-25T02:53:51.647Z,14.50
2018-04-25T02:56:22.123Z,14.50
2018-04-25T02:58:49.909Z,14.80
2018-04-25T03:01:21.592Z,14.50
2018-04-25T03:03:49.718Z,14.40
2018-04-25T03:06:18.848Z,15.10
2018-04-25T03:08:47.369Z,14.50
2018-04-25T03:11:15.487Z,14.50
2018-04-25T03:13:43.639Z,14.60
2018-04-25T03:16:12.137Z,14.60
2018-04-25T03:18:40.623Z,14.70
2018-04-25T03:21:08.378Z,14.40
2018-04-25T03:23:36.483Z,14.70
2018-04-25T03:26:07.061Z,14.70
2018-04-25T03:28:34.760Z,14.40
2018-04-25T03:31:06.769Z,14.90
2018-04-25T03:33:34.522Z,14.70
2018-04-25T03:36:03.127Z,15.40
2018-04-25T03:38:30.858Z,14.90
2018-04-25T03:41:02.433Z,14.80
2018-04-25T03:43:30.908Z,14.80
2018-04-25T03:46:02.702Z,14.80
2018-04-25T03:48:30.944Z,14.40
2018-04-25T03:50:59.405Z,14.80
2018-04-25T03:53:27.875Z,14.90
2018-04-25T03:56:02.902Z,14.80
2018-04-25T03:58:30.618Z,14.60
2018-04-25T04:01:00.442Z,14.70
2018-04-25T04:03:28.546Z,14.90
2018-04-25T04:05:58.042Z,14.80
2018-04-25T04:08:26.171Z,14.80
2018-04-25T04:10:54.984Z,14.80
2018-04-25T04:13:23.493Z,14.90
2018-04-25T04:15:51.923Z,14.90
2018-04-25T04:18:19.626Z,14.80
2018-04-25T04:20:54.456Z,14.80
2018-04-25T04:23:22.184Z,15.00
2018-04-25T04:26:02.288Z,14.80
2018-04-25T04:28:30.705Z,14.80
2018-04-25T04:30:58.465Z,15.00
2018-04-25T04:33:27.676Z,14.80
2018-04-25T04:36:00.628Z,14.80
2018-04-25T04:38:29.084Z,14.80
2018-04-25T04:40:58.177Z,14.70
2018-04-25T04:43:26.273Z,14.90
2018-04-25T04:45:59.933Z,14.90
2018-04-25T04:48:28.077Z,14.90
2018-04-25T04:50:57.504Z,14.90
2018-04-25T04:53:25.229Z,14.90
2018-04-25T04:55:53.335Z,14.80
2018-04-25T04:58:21.073Z,14.70
2018-04-25T05:00:48.758Z,15.20
2018-04-25T05:03:16.444Z,14.70
2018-04-25T05:05:44.133Z,14.60
2018-04-25T05:08:12.586Z,14.70
2018-04-25T05:10:42.006Z,14.80
2018-04-25T05:13:10.540Z,14.80
2018-04-25T05:15:39.395Z,14.80
2018-04-25T05:18:07.883Z,14.80
2018-04-25T05:20:35.748Z,14.80
2018-04-25T05:23:03.388Z,14.60
2018-04-25T05:25:31.827Z,14.90
2018-04-25T05:27:59.528Z,15.30
2018-04-25T05:30:27.985Z,14.90
2018-04-25T05:32:55.729Z,14.80
2018-04-25T05:35:23.877Z,14.90
2018-04-25T05:37:51.617Z,15.00
2018-04-25T05:40:21.075Z,15.10
2018-04-25T05:42:49.294Z,15.20
2018-04-25T05:45:20.807Z,15.10
2018-04-25T05:47:48.504Z,15.00
2018-04-25T05:50:25.056Z,15.10
2018-04-25T05:52:52.801Z,15.00
2018-04-25T05:55:21.287Z,15.10
2018-04-25T05:57:49.428Z,15.20
2018-04-25T06:00:17.825Z,15.10
2018-04-25T06:02:46.293Z,15.10
2018-04-25T06:05:15.051Z,14.80
2018-04-25T06:07:42.728Z,15.30
2018-04-25T06:10:12.598Z,15.20
2018-04-25T06:12:40.635Z,15.60
2018-04-25T06:15:08.303Z,14.70
2018-04-25T06:17:36.388Z,15.30
2018-04-25T06:20:11.782Z,15.10
2018-04-25T06:22:39.884Z,15.10
2018-04-25T06:25:08.014Z,15.10
2018-04-25T06:27:36.360Z,15.00
2018-04-25T06:30:06.381Z,15.20
2018-04-25T06:32:34.851Z,14.90
2018-04-25T06:35:04.107Z,14.90
2018-04-25T06:37:32.508Z,14.80
2018-04-25T06:40:00.235Z,14.60
2018-04-25T06:42:28.622Z,14.80
2018-04-25T06:44:56.447Z,14.00
2018-04-25T06:47:24.914Z,14.60
2018-04-25T06:52:22.880Z,14.30
2018-04-25T06:54:51.957Z,14.30
2018-04-25T06:57:20.477Z,14.20
2018-04-25T06:59:48.118Z,14.00
2018-04-25T07:02:16.336Z,14.50
2018-04-25T07:04:45.878Z,14.20
2018-04-25T07:07:13.994Z,14.60
2018-04-25T07:09:44.836Z,14.10
2018-04-25T07:12:12.921Z,14.00
2018-04-25T07:14:41.029Z,14.30
2018-04-25T07:17:09.068Z,14.00
2018-04-25T07:19:38.191Z,14.20
2018-04-25T07:22:06.294Z,14.60
2018-04-25T07:24:35.066Z,14.40
2018-04-25T07:27:03.556Z,14.40
2018-04-25T07:29:31.271Z,14.60
2018-04-25T07:31:59.748Z,14.70
2018-04-25T07:34:29.248Z,14.70
2018-04-25T07:36:57.701Z,14.70
2018-04-25T07:39:26.235Z,14.40
2018-04-25T07:41:54.387Z,13.90
2018-04-25T07:44:22.451Z,15.20
2018-04-25T07:46:50.183Z,14.80
2018-04-25T07:49:25.039Z,14.70
2018-04-25T07:51:54.332Z,14.80
2018-04-25T07:54:27.768Z,15.00
2018-04-25T07:56:55.485Z,14.30
2018-04-25T07:59:29.387Z,14.60
2018-04-25T08:01:57.565Z,14.60
2018-04-25T08:04:29.136Z,14.60
2018-04-25T08:06:56.847Z,15.30
2018-04-25T08:09:33.149Z,15.40
2018-04-25T08:12:00.928Z,15.40
2018-04-25T08:14:46.423Z,14.40
2018-04-25T08:17:31.605Z,14.70
2018-04-25T08:20:18.013Z,14.50
2018-04-25T08:22:46.461Z,14.20
2018-04-25T08:25:24.247Z,13.80
2018-04-25T08:27:51.974Z,12.70
2018-04-25T08:30:22.866Z,12.90
2018-04-25T08:32:51.475Z,12.90
2018-04-25T08:35:19.546Z,12.70
2018-04-25T08:37:47.605Z,12.90
2018-04-25T08:40:15.717Z,12.90
2018-04-25T08:42:43.335Z,12.60
2018-04-25T08:45:14.198Z,12.80
2018-04-25T08:47:42.631Z,13.00
2018-04-25T08:50:10.456Z,12.70
2018-04-25T08:52:38.223Z,14.00
2018-04-25T08:55:06.578Z,13.70
2018-04-25T08:57:34.667Z,13.90
2018-04-25T09:00:07.537Z,13.60
2018-04-25T09:02:36.023Z,13.90
2018-04-25T09:05:03.841Z,14.10
2018-04-25T09:07:31.903Z,13.90
2018-04-25T09:09:59.537Z,13.60
2018-04-25T09:12:27.703Z,14.00
2018-04-25T09:14:56.170Z,14.00
2018-04-25T09:17:24.257Z,14.20
2018-04-25T09:19:58.808Z,14.50
2018-04-25T09:22:26.484Z,14.40
2018-04-25T09:24:55.196Z,14.70
2018-04-25T09:27:22.953Z,14.60
2018-04-25T09:29:54.948Z,14.60
2018-04-25T09:32:23.405Z,15.00
2018-04-25T09:34:51.115Z,15.10
2018-04-25T09:37:19.234Z,15.30
2018-04-25T09:39:51.931Z,15.20
2018-04-25T09:42:19.656Z,15.00
2018-04-25T09:44:51.484Z,14.90
2018-04-25T09:47:19.915Z,15.10
2018-04-25T09:49:48.416Z,15.00
2018-04-25T09:52:16.564Z,14.50
2018-04-25T09:54:59.324Z,14.70
2018-04-25T09:57:27.021Z,14.50
2018-04-25T09:59:59.772Z,14.40
2018-04-25T10:02:33.839Z,13.70
2018-04-25T10:05:03.431Z,13.90
2018-04-25T10:07:37.356Z,13.50
2018-04-25T10:10:05.896Z,13.40
2018-04-25T10:12:35.365Z,13.50
2018-04-25T10:15:03.141Z,14.20
2018-04-25T10:17:30.799Z,13.90
2018-04-25T10:19:59.205Z,13.80
2018-04-25T10:22:40.650Z,13.90
2018-04-25T10:25:09.121Z,13.70
2018-04-25T10:27:36.870Z,13.70
2018-04-25T10:30:05.317Z,13.80
2018-04-25T10:32:34.019Z,13.00
2018-04-25T10:35:03.225Z,13.50
2018-04-25T10:37:34.532Z,13.20
2018-04-25T10:40:02.569Z,13.00
2018-04-25T10:42:30.711Z,12.50
2018-04-25T10:44:59.127Z,12.60
2018-04-25T10:47:28.881Z,12.60
2018-04-25T10:49:56.613Z,12.50
2018-04-25T10:52:25.336Z,12.40
2018-04-25T10:54:53.008Z,12.60
2018-04-25T10:57:22.696Z,12.60
2018-04-25T10:59:50.818Z,12.80
2018-04-25T11:02:21.418Z,12.70
2018-04-25T11:04:49.191Z,13.00
2018-04-25T11:07:17.701Z,12.50
2018-04-25T11:09:46.147Z,12.40
2018-04-25T11:12:16.966Z,12.40
2018-04-25T11:14:45.055Z,12.40
2018-04-25T11:17:13.180Z,12.60
2018-04-25T11:19:41.641Z,12.80
2018-04-25T11:22:10.916Z,13.40
2018-04-25T11:24:39.602Z,13.10
2018-04-25T11:27:09.662Z,13.30
2018-04-25T11:29:38.383Z,12.90
2018-04-25T11:32:07.108Z,12.40
2018-04-25T11:34:34.827Z,12.50
2018-04-25T11:37:04.055Z,12.10
2018-04-25T11:39:32.208Z,12.00
2018-04-25T11:41:59.905Z,12.00
2018-04-25T11:44:27.550Z,12.00
2018-04-25T11:46:59.920Z,12.10
2018-04-25T11:49:27.630Z,12.60
2018-04-25T11:51:57.018Z,12.60
2018-04-25T11:54:25.862Z,12.80
2018-04-25T11:56:55.094Z,13.00
2018-04-25T11:59:22.794Z,12.60
2018-04-25T12:01:50.505Z,12.80
2018-04-25T12:04:18.991Z,12.60
2018-04-25T12:06:48.413Z,10.90
2018-04-25T12:09:16.864Z,12.50
2018-04-25T12:11:46.370Z,12.40
2018-04-25T12:14:14.495Z,12.40
2018-04-25T12:16:43.045Z,12.30
2018-04-25T12:19:11.213Z,12.40
2018-04-25T12:21:38.906Z,12.40
2018-04-25T12:24:07.310Z,12.20
2018-04-25T12:26:34.971Z,12.30
2018-04-25T12:29:02.641Z,12.30
2018-04-25T12:31:32.084Z,12.30
2018-04-25T12:34:02.050Z,12.80
2018-04-25T12:36:30.539Z,12.90
2018-04-25T12:39:00.326Z,14.00
2018-04-25T12:41:28.045Z,13.40
2018-04-25T12:43:57.490Z,13.30
2018-04-25T12:46:25.177Z,13.20
2018-04-25T12:48:53.833Z,13.00
2018-04-25T12:51:21.557Z,13.20
2018-04-25T12:53:49.278Z,13.10
2018-04-25T12:56:17.375Z,12.70
2018-04-25T12:58:48.136Z,13.00
2018-04-25T13:01:16.252Z,12.90
2018-04-25T13:03:47.972Z,12.60
2018-04-25T13:06:16.465Z,12.60
2018-04-25T13:08:48.448Z,12.50
2018-04-25T13:11:16.940Z,12.50
2018-04-25T13:13:50.405Z,12.30
2018-04-25T13:16:18.052Z,12.20
2018-04-25T13:18:51.745Z,12.20
2018-04-25T13:21:19.476Z,11.70
2018-04-25T13:23:47.718Z,11.90
2018-04-25T13:26:16.884Z,11.80
2018-04-25T13:28:45.633Z,12.00
2018-04-25T13:31:13.334Z,11.80
2018-04-25T13:33:42.011Z,11.50
2018-04-25T13:36:10.485Z,11.40
2018-04-25T13:38:39.959Z,11.50
2018-04-25T13:41:07.692Z,11.60
2018-04-25T13:43:40.539Z,11.70
2018-04-25T13:46:08.717Z,11.40
2018-04-25T13:48:39.235Z,11.80
2018-04-25T13:51:07.371Z,11.80
2018-04-25T13:53:35.861Z,11.90
2018-04-25T13:56:03.980Z,12.40
2018-04-25T13:58:33.817Z,12.50
2018-04-25T14:01:02.648Z,12.70
2018-04-25T14:03:35.481Z,12.90
2018-04-25T14:06:03.188Z,12.80
2018-04-25T14:08:31.864Z,12.40
2018-04-25T14:10:59.644Z,13.00
2018-04-25T14:13:30.513Z,13.30
2018-04-25T14:15:58.245Z,13.20
2018-04-25T14:18:25.916Z,13.10
2018-04-25T14:20:54.385Z,13.00
2018-04-25T14:23:24.518Z,13.00
2018-04-25T14:25:52.594Z,13.10
2018-04-25T14:28:24.577Z,13.10
2018-04-25T14:30:52.800Z,13.10
2018-04-25T14:33:21.476Z,13.00
2018-04-25T14:35:49.541Z,13.00
2018-04-25T14:38:17.235Z,12.20
2018-04-25T14:40:45.317Z,12.90
2018-04-25T14:43:14.800Z,13.00
2018-04-25T14:45:42.832Z,12.80
2018-04-25T14:48:12.456Z,12.50
2018-04-25T14:50:40.151Z,12.60
2018-04-25T14:53:09.205Z,12.50
2018-04-25T14:55:37.602Z,12.60
2018-04-25T14:58:05.349Z,12.60
2018-04-25T15:00:33.444Z,12.50
2018-04-25T15:03:02.556Z,12.30
2018-04-25T15:05:30.655Z,12.50
2018-04-25T15:07:58.817Z,12.50
2018-04-25T15:10:27.305Z,12.60
2018-04-25T15:12:55.082Z,13.00
2018-04-25T15:15:23.544Z,12.70
2018-04-25T15:17:51.841Z,12.80
2018-04-25T15:20:20.247Z,12.80
2018-04-25T15:22:57.773Z,12.80
2018-04-25T15:25:25.881Z,13.00
2018-04-25T15:27:56.150Z,13.20
2018-04-25T15:30:24.268Z,13.20
2018-04-25T15:32:52.436Z,13.50
2018-04-25T15:35:20.064Z,14.00
2018-04-25T15:37:49.845Z,13.40
2018-04-25T15:40:17.574Z,13.30
2018-04-25T15:42:45.735Z,13.40
2018-04-25T15:45:14.592Z,13.40
2018-04-25T15:47:47.110Z,14.00
2018-04-25T15:50:14.799Z,15.10
2018-04-25T15:52:49.573Z,15.20
2018-04-25T15:55:17.242Z,15.70
2018-04-25T15:57:47.696Z,16.30
2018-04-25T16:00:15.420Z,16.80
2018-04-25T16:02:44.129Z,17.00
2018-04-25T16:07:43.381Z,16.80
2018-04-25T16:10:11.124Z,16.60
2018-04-25T16:12:39.256Z,17.70
2018-04-25T16:15:07.785Z,18.80
2018-04-25T16:17:36.568Z,19.40
2018-04-25T16:20:04.684Z,19.30
2018-04-25T16:22:34.838Z,18.80
2018-04-25T16:25:03.400Z,18.10
2018-04-25T16:27:32.514Z,17.30
2018-04-25T16:30:01.015Z,16.60
2018-04-25T16:32:28.778Z,15.40
2018-04-25T16:34:56.417Z,15.40
2018-04-25T16:37:25.319Z,14.60
2018-04-25T16:39:53.418Z,14.10
2018-04-25T16:42:28.516Z,13.90
2018-04-25T16:44:57.003Z,13.70
2018-04-25T16:47:26.123Z,13.60
2018-04-25T16:49:54.228Z,13.50
2018-04-25T16:52:28.430Z,13.00
2018-04-25T16:54:56.144Z,13.20
2018-04-25T16:57:24.712Z,13.20
2018-04-25T16:59:52.980Z,13.20
2018-04-25T17:02:24.520Z,13.30
2018-04-25T17:04:52.932Z,13.30
2018-04-25T17:07:22.461Z,13.20
2018-04-25T17:09:50.922Z,13.00
2018-04-25T17:12:19.567Z,12.90
2018-04-25T17:14:47.260Z,12.30
2018-04-25T17:17:15.774Z,12.60
2018-04-25T17:19:44.206Z,12.70
2018-04-25T17:22:12.818Z,12.70
2018-04-25T17:24:41.665Z,12.50
2018-04-25T17:27:10.813Z,11.30
2018-04-25T17:29:39.651Z,10.70
2018-04-25T17:32:09.342Z,10.50
2018-04-25T17:34:37.013Z,10.00
2018-04-25T17:37:05.507Z,10.00
2018-04-25T17:39:35.704Z,10.00
2018-04-25T17:42:04.248Z,10.00
2018-04-25T17:44:32.746Z,9.90
2018-04-25T17:49:30.838Z,10.00
2018-04-25T17:52:09.105Z,10.00
2018-04-25T17:54:37.551Z,10.20
2018-04-25T17:57:06.280Z,10.40
2018-04-25T17:59:34.419Z,10.10
2018-04-25T18:02:03.576Z,10.30
2018-04-25T18:04:31.680Z,10.10
2018-04-25T18:06:59.386Z,9.70
2018-04-25T18:09:27.440Z,9.80
2018-04-25T18:11:57.026Z,9.70
2018-04-25T18:14:24.757Z,9.70
2018-04-25T18:16:57.733Z,9.50
2018-04-25T18:19:25.825Z,9.60
2018-04-25T18:21:57.301Z,9.70
2018-04-25T18:24:25.369Z,9.30
2018-04-25T18:26:55.244Z,9.70
2018-04-25T18:29:22.932Z,10.20
2018-04-25T18:31:52.813Z,9.80
2018-04-25T18:34:22.041Z,9.50
2018-04-25T18:36:51.951Z,9.40
2018-04-25T18:39:20.469Z,9.30
2018-04-25T18:41:52.417Z,9.20
2018-04-25T18:44:20.097Z,9.30
2018-04-25T18:46:48.214Z,9.40
2018-04-25T18:49:16.688Z,9.20
2018-04-25T18:51:48.363Z,6.60
2018-04-25T18:54:16.022Z,9.00
2018-04-25T18:56:44.536Z,9.10
2018-04-25T18:59:12.601Z,9.10
2018-04-25T19:01:42.588Z,9.00
2018-04-25T19:04:10.993Z,9.00
2018-04-25T19:06:38.708Z,8.70
2018-04-25T19:09:07.180Z,9.00
2018-04-25T19:11:39.181Z,8.90
2018-04-25T19:14:07.972Z,8.80
2018-04-25T19:16:46.156Z,8.80
2018-04-25T19:19:14.652Z,8.80
2018-04-25T19:21:49.819Z,8.80
2018-04-25T19:24:17.598Z,8.50
2018-04-25T19:26:45.226Z,8.70
2018-04-25T19:29:12.951Z,8.60
2018-04-25T19:31:41.405Z,8.60
2018-04-25T19:34:10.491Z,8.60
2018-04-25T19:36:38.920Z,8.60
2018-04-25T19:39:06.742Z,8.60
2018-04-25T19:41:34.368Z,8.40
2018-04-25T19:44:02.838Z,8.40
2018-04-25T19:46:30.965Z,8.40
2018-04-25T19:48:59.628Z,8.30
2018-04-25T19:51:27.347Z,8.40
2018-04-25T19:53:55.503Z,8.20
2018-04-25T19:56:23.964Z,8.30
2018-04-25T19:58:52.601Z,8.20
2018-04-25T20:01:20.301Z,8.20
2018-04-25T20:03:47.994Z,8.20
2018-04-25T20:06:16.855Z,8.10
2018-04-25T20:08:46.969Z,8.00
2018-04-25T20:11:15.491Z,8.00
2018-04-25T20:13:45.047Z,7.90
2018-04-25T20:16:13.889Z,8.00
2018-04-25T20:18:43.390Z,7.90
2018-04-25T20:21:12.021Z,7.90
2018-04-25T20:23:39.716Z,8.00
2018-04-25T20:26:07.419Z,7.80
2018-04-25T20:28:36.195Z,7.60
2018-04-25T20:31:04.295Z,7.90
2018-04-25T20:33:34.393Z,7.70
2018-04-25T20:38:31.530Z,7.60
2018-04-25T20:40:59.976Z,7.60
2018-04-25T20:43:35.789Z,7.90
2018-04-25T20:46:04.280Z,7.60
2018-04-25T20:48:31.966Z,7.70
2018-04-25T20:50:59.639Z,7.50
2018-04-25T20:55:57.880Z,7.60
2018-04-25T21:00:54.605Z,7.60
2018-04-25T21:03:23.458Z,7.70
2018-04-25T21:05:51.873Z,7.40
2018-04-25T21:08:20.964Z,7.30
2018-04-25T21:10:48.666Z,7.40
2018-04-25T21:13:18.125Z,7.40
2018-04-25T21:15:45.797Z,7.50
2018-04-25T21:18:14.859Z,7.30
2018-04-25T21:20:43.805Z,7.30
2018-04-25T21:23:13.309Z,7.20
2018-04-25T21:25:41.752Z,7.30
2018-04-25T21:28:11.984Z,7.20
2018-04-25T21:30:40.426Z,7.20
2018-04-25T21:33:08.108Z,7.00
2018-04-25T21:35:35.828Z,7.10
2018-04-25T21:38:04.724Z,7.10
2018-04-25T21:40:33.219Z,7.00
2018-04-25T21:43:02.895Z,6.90
2018-04-25T21:45:31.355Z,7.00
2018-04-25T21:50:31.170Z,6.90
2018-04-25T21:53:00.284Z,7.10
2018-04-25T21:55:28.510Z,7.00
2018-04-25T21:57:59.945Z,6.70
2018-04-25T22:00:29.153Z,7.00
2018-04-25T22:02:59.632Z,7.00
2018-04-25T22:05:27.756Z,7.00
2018-04-25T22:08:01.828Z,7.00
2018-04-25T22:10:30.920Z,7.10
2018-04-25T22:13:04.726Z,7.30
2018-04-25T22:15:36.142Z,7.20
2018-04-25T22:18:09.877Z,7.30
2018-04-25T22:20:40.015Z,7.40
2018-04-25T22:23:11.659Z,7.60
2018-04-25T22:25:46.518Z,7.50
2018-04-25T22:28:17.279Z,7.70
2018-04-25T22:30:50.913Z,7.60
2018-04-25T22:33:20.999Z,7.60
2018-04-25T22:38:25.066Z,7.60
2018-04-25T22:40:54.262Z,8.00
2018-04-25T22:43:26.220Z,7.60
2018-04-25T22:45:55.945Z,7.70
2018-04-25T22:48:28.880Z,7.80
2018-04-25T22:50:58.416Z,8.10
2018-04-25T22:53:27.025Z,7.80
2018-04-25T22:55:57.294Z,8.00
2018-04-25T22:58:27.377Z,8.10
2018-04-25T23:00:58.168Z,8.20
2018-04-25T23:03:27.356Z,7.90
2018-04-25T23:05:58.428Z,8.30
2018-04-25T23:08:28.024Z,8.50
2018-04-25T23:10:57.436Z,8.60
2018-04-25T23:13:26.706Z,8.60
2018-04-25T23:16:03.322Z,8.80
2018-04-25T23:18:39.073Z,8.80
2018-04-25T23:21:10.324Z,8.60
2018-04-25T23:23:44.613Z,8.80
2018-04-25T23:26:14.074Z,9.20
2018-04-25T23:28:50.446Z,8.90
2018-04-25T23:31:25.174Z,9.00
2018-04-25T23:33:56.755Z,8.90
2018-04-25T23:36:27.033Z,8.70
2018-04-25T23:39:05.516Z,8.80
2018-04-25T23:41:35.719Z,8.80
2018-04-25T23:44:07.945Z,8.80
2018-04-25T23:46:44.667Z,8.80
2018-04-25T23:49:15.023Z,8.80
2018-04-25T23:51:50.309Z,9.00
2018-04-25T23:56:55.188Z,8.90
2018-04-25T23:59:26.900Z,8.90
